Time;durP1;ratioP1;P1;durP2;ratioP2;P2;SDS_P1;SDS_P2;PMS_P1;PMS_P2;Temp;Humidity;BMP_temperature;BMP_pressure;BME280_temperature;BME280_humidity;BME280_pressure;Samples;Min_cycle;Max_cycle;Signal;HPM_P1;HPM_P2
2022/11/23 07:59:57;;;;;;;9.80;5.30;;;;;;;2.88;100.00;97249.13;4518594;31;259392;-81
2022/11/23 08:02:26;;;;;;;11.60;5.78;;;;;;;2.88;100.00;97249.13;4510490;31;20827;-79
2022/11/23 08:04:54;;;;;;;8.68;4.97;;;;;;;2.52;100.00;97248.59;4511245;31;20180;-79
2022/11/23 08:07:21;;;;;;;13.77;5.82;;;;;;;2.55;100.00;97263.84;4509211;31;20589;-78
2022/11/23 08:09:49;;;;;;;10.73;4.78;;;;;;;2.51;100.00;97251.31;4509789;31;20153;-75
2022/11/23 08:12:16;;;;;;;12.52;5.37;;;;;;;2.56;100.00;97260.34;4511318;31;20160;-77
2022/11/23 08:14:43;;;;;;;12.52;5.68;;;;;;;2.60;100.00;97255.72;4510663;31;20100;-79
2022/11/23 08:17:10;;;;;;;11.73;4.15;;;;;;;2.65;100.00;97259.59;4508142;31;20124;-78
2022/11/23 08:19:38;;;;;;;18.27;4.72;;;;;;;2.66;100.00;97260.41;4509674;31;20140;-77
2022/11/23 08:22:05;;;;;;;13.62;5.30;;;;;;;2.67;100.00;97267.22;4498846;31;20096;-78
2022/11/23 08:24:32;;;;;;;10.77;4.62;;;;;;;2.67;100.00;97257.69;4507260;31;20100;-74
2022/11/23 08:27:00;;;;;;;10.23;4.60;;;;;;;2.66;100.00;97261.25;4509819;31;20104;-76
2022/11/23 08:29:28;;;;;;;10.20;5.10;;;;;;;2.70;100.00;97264.37;4510722;31;20164;-75
2022/11/23 08:31:55;;;;;;;8.48;4.90;;;;;;;2.72;100.00;97261.69;4508319;31;20092;-76
2022/11/23 08:34:22;;;;;;;12.63;5.68;;;;;;;2.81;100.00;97263.50;4504056;31;20156;-76
2022/11/23 08:36:49;;;;;;;12.45;5.57;;;;;;;2.80;100.00;97267.88;4511568;31;20830;-74
2022/11/23 08:39:18;;;;;;;9.13;4.82;;;;;;;2.81;100.00;97269.50;4510166;31;20088;-76
2022/11/23 08:41:45;;;;;;;13.00;6.18;;;;;;;2.82;100.00;97270.31;4511160;31;20099;-75
2022/11/23 08:44:12;;;;;;;8.73;4.78;;;;;;;2.84;100.00;97268.44;4511210;31;20104;-74
2022/11/23 08:47:00;;;;;;;9.65;5.30;;;;;;;2.89;100.00;97265.47;4507942;31;20715;-74
2022/11/23 08:49:27;;;;;;;9.45;4.43;;;;;;;2.93;100.00;97266.84;4510939;31;20484;-73
2022/11/23 08:51:54;;;;;;;10.82;4.60;;;;;;;2.97;100.00;97266.47;4511140;31;20155;-74
2022/11/23 08:54:23;;;;;;;9.48;5.32;;;;;;;2.96;100.00;97270.00;4511340;31;20461;-75
2022/11/23 08:56:50;;;;;;;8.13;5.10;;;;;;;2.96;100.00;97269.19;4508313;31;20234;-79
2022/11/23 08:59:18;;;;;;;8.00;4.68;;;;;;;2.98;100.00;97275.88;4510630;31;20130;-76
2022/11/23 09:01:45;;;;;;;8.32;5.07;;;;;;;3.02;100.00;97271.28;4511212;31;20109;-76
2022/11/23 09:04:15;;;;;;;10.60;4.68;;;;;;;3.00;100.00;97268.00;4510672;31;20519;-77
2022/11/23 09:06:58;;;;;;;12.13;4.50;;;;;;;3.00;100.00;97276.56;4510629;31;20774;-78
2022/11/23 09:09:25;;;;;;;9.57;5.00;;;;;;;2.97;100.00;97274.25;4499661;31;20100;-77
2022/11/23 09:11:52;;;;;;;10.77;4.85;;;;;;;3.02;100.00;97277.25;4492071;31;20099;-76
2022/11/23 09:14:21;;;;;;;13.27;5.10;;;;;;;3.04;100.00;97281.50;4498999;31;20084;-81
2022/11/23 09:16:48;;;;;;;13.50;5.40;;;;;;;3.07;100.00;97281.22;4496328;31;20152;-79
2022/11/23 09:19:15;;;;;;;10.25;4.78;;;;;;;3.04;100.00;97278.91;4498904;31;20624;-77
2022/11/23 09:21:42;;;;;;;10.10;4.40;;;;;;;3.09;100.00;97279.34;4499659;31;20799;-76
2022/11/23 09:24:11;;;;;;;8.20;4.50;;;;;;;3.09;100.00;97287.09;4493055;31;20111;-77
2022/11/23 09:26:39;;;;;;;9.18;4.57;;;;;;;3.07;100.00;97283.81;4497236;31;20148;-76
2022/11/23 09:29:07;;;;;;;10.77;5.15;;;;;;;3.10;100.00;97278.41;4494256;31;20160;-76
2022/11/23 09:31:34;;;;;;;10.07;4.80;;;;;;;3.13;100.00;97280.72;4484336;31;20092;-76
2022/11/23 09:34:02;;;;;;;9.40;4.22;;;;;;;3.14;100.00;97283.19;4482195;31;20100;-77
2022/11/23 09:36:29;;;;;;;8.63;4.43;;;;;;;3.10;100.00;97271.44;4481348;31;20096;-74
2022/11/23 09:38:56;;;;;;;8.85;4.57;;;;;;;3.13;100.00;97278.94;4475447;31;20105;-75
2022/11/23 09:41:54;;;;;;;7.53;4.37;;;;;;;3.13;100.00;97278.13;4481230;31;20156;-76
2022/11/23 09:44:51;;;;;;;9.20;4.50;;;;;;;3.18;100.00;97274.22;4478119;32;20107;-76
2022/11/23 09:47:45;;;;;;;6.45;3.78;;;;;;;3.29;100.00;97272.53;4484545;31;20483;-76
2022/11/23 09:50:37;;;;;;;11.12;4.15;;;;;;;3.28;100.00;97268.28;4474424;32;20156;-76
2022/11/23 09:53:10;;;;;;;7.00;3.40;;;;;;;3.33;100.00;97261.78;4476339;32;20100;-76
2022/11/23 09:55:42;;;;;;;8.43;4.20;;;;;;;3.34;100.00;97266.00;4484597;31;20106;-77
2022/11/23 09:58:14;;;;;;;9.18;4.40;;;;;;;3.32;100.00;97269.69;4482816;32;20096;-76
2022/11/23 10:01:11;;;;;;;9.13;4.20;;;;;;;3.33;100.00;97264.37;4482339;32;20163;-77
2022/11/23 10:03:40;;;;;;;6.37;3.67;;;;;;;3.37;100.00;97263.13;4482390;32;20100;-77
2022/11/23 10:06:22;;;;;;;6.35;4.00;;;;;;;3.41;100.00;97270.66;4484833;32;21214;-77
2022/11/23 10:08:59;;;;;;;8.57;4.05;;;;;;;3.42;100.00;97267.13;4485532;31;20175;-78
2022/11/23 10:11:38;;;;;;;8.45;4.03;;;;;;;3.35;100.00;97267.63;4484562;31;20097;-76
2022/11/23 10:14:11;;;;;;;8.30;4.20;;;;;;;3.46;100.00;97261.56;4484369;31;20120;-74
2022/11/23 10:16:58;;;;;;;8.82;4.28;;;;;;;3.48;100.00;97259.69;4484779;32;20106;-76
2022/11/23 10:19:51;;;;;;;7.55;4.10;;;;;;;3.48;100.00;97256.25;4483271;32;20107;-75
2022/11/23 10:22:58;;;;;;;7.45;3.62;;;;;;;3.57;100.00;97259.84;4474889;32;20122;-77
2022/11/23 10:25:30;;;;;;;5.62;3.70;;;;;;;3.44;100.00;97257.47;4480875;32;20118;-75
2022/11/23 10:28:13;;;;;;;10.18;4.40;;;;;;;3.49;100.00;97263.06;4467494;32;20084;-75
2022/11/23 10:30:40;;;;;;;7.25;4.20;;;;;;;3.34;100.00;97258.22;4481632;32;20092;-76
2022/11/23 10:33:27;;;;;;;5.93;3.80;;;;;;;3.34;100.00;97260.81;4484537;31;20171;-77
2022/11/23 10:35:55;;;;;;;8.73;4.00;;;;;;;3.38;100.00;97257.03;4482780;31;20119;-76
2022/11/23 10:38:26;;;;;;;13.27;4.28;;;;;;;3.47;100.00;97254.63;4484589;31;20737;-76
2022/11/23 10:40:59;;;;;;;7.15;4.43;;;;;;;3.48;100.00;97258.84;4483035;32;20137;-74
2022/11/23 10:43:30;;;;;;;7.00;3.90;;;;;;;3.55;100.00;97257.37;4481696;32;20835;-75
2022/11/23 10:46:41;;;;;;;7.55;4.60;;;;;;;3.61;100.00;97256.84;4472392;31;20156;-76
2022/11/23 10:49:14;;;;;;;8.25;4.15;;;;;;;3.71;100.00;97254.31;4436154;32;20720;-78
2022/11/23 10:51:51;;;;;;;8.43;4.40;;;;;;;3.69;100.00;97257.03;4435285;32;20176;-78
2022/11/23 10:54:33;;;;;;;6.97;4.37;;;;;;;3.70;100.00;97253.47;4451503;32;20205;-77
2022/11/23 10:57:39;;;;;;;8.98;4.57;;;;;;;3.87;100.00;97246.03;4433086;32;20989;-78
2022/11/23 11:00:09;;;;;;;9.80;4.78;;;;;;;3.75;100.00;97255.66;4451052;32;20168;-76
2022/11/23 11:02:41;;;;;;;6.80;4.18;;;;;;;3.85;100.00;97253.12;4449181;32;20123;-76
2022/11/23 11:05:31;;;;;;;8.07;4.95;;;;;;;3.81;100.00;97249.94;4449254;32;20149;-77
2022/11/23 11:08:20;;;;;;;8.68;4.72;;;;;;;3.88;100.00;97251.06;4450221;32;20132;-79
2022/11/23 11:10:49;;;;;;;8.35;4.10;;;;;;;3.83;100.00;97250.66;4436492;32;20124;-77
2022/11/23 11:13:41;;;;;;;6.28;4.20;;;;;;;3.84;100.00;97251.47;4437006;32;20097;-75
2022/11/23 11:16:29;;;;;;;9.27;4.62;;;;;;;3.81;100.00;97251.72;4449291;32;20790;-76
2022/11/23 11:18:57;;;;;;;6.57;4.45;;;;;;;3.85;100.00;97246.16;4431282;32;20132;-76
2022/11/23 11:21:27;;;;;;;10.15;4.00;;;;;;;3.88;100.00;97250.25;4432614;32;20201;-77
2022/11/23 11:24:05;;;;;;;8.00;4.40;;;;;;;3.88;100.00;97247.66;4448821;32;20092;-76
2022/11/23 11:26:34;;;;;;;8.43;3.90;;;;;;;3.89;100.00;97246.69;4473280;32;20241;-75
2022/11/23 11:29:04;;;;;;;7.47;3.83;;;;;;;3.89;100.00;97262.25;4483634;31;20092;-73
2022/11/23 11:31:37;;;;;;;8.25;4.35;;;;;;;3.88;100.00;97255.44;4482774;31;20115;-74
2022/11/23 11:34:15;;;;;;;6.60;3.90;;;;;;;4.00;100.00;97251.78;4482317;32;20954;-74
2022/11/23 11:37:03;;;;;;;7.78;5.03;;;;;;;4.01;100.00;97266.38;4477702;31;20096;-76
2022/11/23 11:39:46;;;;;;;8.43;4.47;;;;;;;3.92;100.00;97256.78;4475985;32;20138;-76
2022/11/23 11:42:32;;;;;;;8.77;4.75;;;;;;;4.00;100.00;97259.56;4478371;32;20118;-75
2022/11/23 11:45:02;;;;;;;7.35;4.10;;;;;;;3.95;100.00;97253.97;4476653;32;20173;-75
2022/11/23 11:47:36;;;;;;;8.57;4.75;;;;;;;4.00;100.00;97264.75;4478122;31;20152;-75
2022/11/23 11:50:09;;;;;;;;;;;;;;;3.94;100.00;97261.84;4475511;32;20155;-75
2022/11/23 11:52:39;;;;;;;6.68;4.00;;;;;;;4.02;100.00;97265.41;4478159;32;19984;-76
2022/11/23 11:55:22;;;;;;;10.55;5.85;;;;;;;3.89;100.00;97265.69;4483060;31;20084;-75
2022/11/23 11:57:55;;;;;;;12.05;5.47;;;;;;;3.96;100.00;97265.94;4480235;32;20105;-74
2022/11/23 12:00:22;;;;;;;9.65;5.10;;;;;;;4.05;100.00;97272.91;4475879;32;20116;-74
2022/11/23 12:03:11;;;;;;;9.52;5.18;;;;;;;4.05;100.00;97269.53;4478762;32;20104;-73
2022/11/23 12:05:48;;;;;;;7.82;4.85;;;;;;;3.95;100.00;97279.03;4478823;32;20119;-74
2022/11/23 12:08:21;;;;;;;9.07;5.68;;;;;;;3.95;100.00;97266.09;4475227;32;20195;-73
2022/11/23 12:10:51;;;;;;;10.45;6.03;;;;;;;3.95;100.00;97269.50;4473130;32;20101;-74
2022/11/23 12:13:21;;;;;;;9.30;5.70;;;;;;;3.99;100.00;97272.66;4473315;32;20466;-73
2022/11/23 12:16:14;;;;;;;8.23;4.97;;;;;;;3.96;100.00;97273.72;4473909;32;20107;-74
2022/11/23 12:19:03;;;;;;;12.27;5.80;;;;;;;3.94;100.00;97272.22;4471585;32;20201;-73
2022/11/23 12:21:42;;;;;;;9.07;5.22;;;;;;;3.97;100.00;97272.78;4474722;32;20179;-74
2022/11/23 12:24:23;;;;;;;9.80;4.93;;;;;;;3.95;100.00;97261.75;4475313;32;20092;-73
2022/11/23 12:27:13;;;;;;;8.50;4.87;;;;;;;3.94;100.00;97265.28;4482510;31;20143;-74
2022/11/23 12:30:11;;;;;;;8.55;5.55;;;;;;;3.95;100.00;97264.34;4479844;32;20177;-74
2022/11/23 12:32:57;;;;;;;9.02;5.50;;;;;;;3.91;100.00;97262.94;4477450;32;20136;-74
2022/11/23 12:36:01;;;;;;;11.27;5.90;;;;;;;3.91;100.00;97260.34;4472532;32;20194;-75
2022/11/23 12:38:34;;;;;;;14.00;6.75;;;;;;;3.95;100.00;97259.16;4480419;32;20153;-76
2022/11/23 12:41:14;;;;;;;9.65;5.60;;;;;;;4.01;100.00;97258.63;4480357;31;20105;-76
2022/11/23 12:43:57;;;;;;;13.52;5.82;;;;;;;4.04;100.00;97257.50;4478798;32;20096;-75
2022/11/23 12:46:50;;;;;;;12.23;6.57;;;;;;;4.06;100.00;97261.62;4475072;32;20489;-74
2022/11/23 12:49:29;;;;;;;10.18;5.72;;;;;;;4.11;100.00;97255.22;4475814;32;20096;-74
2022/11/23 12:52:40;;;;;;;9.98;5.00;;;;;;;4.09;100.00;97258.75;4476539;32;20115;-76
2022/11/23 12:55:22;;;;;;;8.18;5.30;;;;;;;4.04;100.00;97254.91;4475807;32;20100;-76
2022/11/23 12:58:14;;;;;;;11.65;6.53;;;;;;;4.02;100.00;97260.22;4471529;32;20640;-76
2022/11/23 13:00:54;;;;;;;9.52;5.15;;;;;;;4.11;100.00;97260.41;4475011;32;20757;-74
2022/11/23 13:03:36;;;;;;;10.10;5.90;;;;;;;4.12;100.00;97265.44;4474715;32;20123;-76
2022/11/23 13:06:26;;;;;;;9.52;5.57;;;;;;;4.05;100.00;97269.53;4479274;31;20441;-76
2022/11/23 13:09:12;;;;;;;8.35;4.50;;;;;;;4.04;100.00;97268.72;4477368;32;20093;-75
2022/11/23 13:11:39;;;;;;;9.43;5.25;;;;;;;4.06;100.00;97271.16;4476593;32;20119;-75
2022/11/23 13:14:22;;;;;;;8.93;5.03;;;;;;;4.05;100.00;97270.34;4476123;32;20119;-75
2022/11/23 13:17:08;;;;;;;8.77;5.28;;;;;;;4.06;100.00;97271.97;4477799;32;20077;-75
2022/11/23 13:19:41;;;;;;;11.35;5.12;;;;;;;4.03;100.00;97272.25;4478080;32;20147;-76
2022/11/23 13:22:14;;;;;;;12.43;5.97;;;;;;;4.07;100.00;97277.97;4476446;31;20538;-76
2022/11/23 13:25:00;;;;;;;12.13;6.45;;;;;;;4.03;100.00;97268.84;4475297;32;20093;-76
2022/11/23 13:27:29;;;;;;;9.48;5.35;;;;;;;4.00;100.00;97272.50;4470301;32;20459;-76
2022/11/23 13:30:07;;;;;;;9.43;5.95;;;;;;;4.06;100.00;97271.97;4482174;32;20089;-76
2022/11/23 13:32:37;;;;;;;11.38;5.62;;;;;;;4.08;100.00;97283.03;4478836;31;20503;-75
2022/11/23 13:35:16;;;;;;;10.35;6.07;;;;;;;4.05;100.00;97275.50;4478442;32;20128;-75
2022/11/23 13:38:12;;;;;;;11.68;6.35;;;;;;;4.06;100.00;97276.34;4473694;32;20100;-76
2022/11/23 13:40:42;;;;;;;7.80;5.50;;;;;;;4.10;100.00;97277.69;4478233;31;20604;-75
2022/11/23 13:43:18;;;;;;;10.45;5.90;;;;;;;4.09;100.00;97282.06;4480230;32;20152;-77
2022/11/23 13:45:52;;;;;;;13.55;7.65;;;;;;;4.12;100.00;97286.19;4474128;32;20555;-76
2022/11/23 13:48:19;;;;;;;10.70;6.78;;;;;;;4.09;100.00;97284.66;4473817;32;20080;-76
2022/11/23 13:51:07;;;;;;;10.05;5.22;;;;;;;4.06;100.00;97281.53;4473857;32;20156;-75
2022/11/23 13:53:36;;;;;;;9.80;5.53;;;;;;;3.98;100.00;97289.97;4476590;32;20119;-77
2022/11/23 13:56:23;;;;;;;12.10;5.72;;;;;;;3.99;100.00;97283.00;4479065;32;20138;-77
2022/11/23 13:58:52;;;;;;;12.50;5.75;;;;;;;3.99;100.00;97289.00;4480566;32;20104;-76
2022/11/23 14:01:58;;;;;;;12.40;5.40;;;;;;;3.97;100.00;97288.31;4477821;32;21303;-76
2022/11/23 14:04:33;;;;;;;7.57;5.32;;;;;;;4.01;100.00;97296.66;4461801;32;20115;-76
2022/11/23 14:07:01;;;;;;;10.50;5.75;;;;;;;3.95;100.00;97295.41;4452903;32;20105;-76
2022/11/23 14:09:53;;;;;;;11.12;6.03;;;;;;;3.97;100.00;97297.88;4458651;32;20673;-77
2022/11/23 14:12:35;;;;;;;11.80;5.97;;;;;;;3.98;100.00;97296.91;4463454;32;20108;-76
2022/11/23 14:15:14;;;;;;;9.15;5.53;;;;;;;4.00;100.00;97303.59;4464008;32;20465;-76
2022/11/23 14:18:02;;;;;;;12.10;6.40;;;;;;;3.97;100.00;97303.06;4451498;32;20177;-76
2022/11/23 14:20:33;;;;;;;10.63;5.82;;;;;;;3.99;100.00;97293.38;4460952;32;20218;-79
2022/11/23 14:23:00;;;;;;;12.77;6.72;;;;;;;4.01;100.00;97299.22;4463179;32;20555;-74
2022/11/23 14:25:33;;;;;;;10.82;5.57;;;;;;;3.98;100.00;97302.94;4455234;32;20100;-75
2022/11/23 14:28:20;;;;;;;11.07;5.90;;;;;;;4.05;100.00;97304.03;4451792;32;20105;-75
2022/11/23 14:31:12;;;;;;;9.60;5.50;;;;;;;4.04;100.00;97309.34;4439087;32;20172;-76
2022/11/23 14:33:54;;;;;;;13.38;6.68;;;;;;;4.06;100.00;97312.63;4455252;32;20573;-76
2022/11/23 14:36:34;;;;;;;10.10;6.47;;;;;;;4.01;100.00;97315.63;4448030;32;20113;-75
2022/11/23 14:39:20;;;;;;;11.52;5.62;;;;;;;3.97;100.00;97306.47;4453237;32;20093;-76
2022/11/23 14:41:53;;;;;;;11.18;5.85;;;;;;;3.88;100.00;97313.25;4474167;32;20126;-75
2022/11/23 14:44:24;;;;;;;11.45;6.50;;;;;;;3.86;100.00;97315.16;4476120;32;20092;-76
2022/11/23 14:47:27;;;;;;;12.37;6.05;;;;;;;3.93;100.00;97312.84;4481277;31;20088;-75
2022/11/23 14:49:55;;;;;;;11.05;6.70;;;;;;;3.96;100.00;97315.19;4480128;32;20122;-76
2022/11/23 14:52:33;;;;;;;10.75;5.72;;;;;;;3.85;100.00;97312.69;4484266;32;20134;-75
2022/11/23 14:55:03;;;;;;;10.07;5.45;;;;;;;3.86;100.00;97312.56;4483519;32;20179;-76
2022/11/23 14:57:40;;;;;;;16.52;5.68;;;;;;;3.83;100.00;97319.75;4483481;32;20149;-76
2022/11/23 15:00:25;;;;;;;11.12;5.72;;;;;;;3.79;100.00;97319.22;4483634;32;20139;-75
2022/11/23 15:02:52;;;;;;;;;;;;;;;3.82;100.00;97320.72;4494579;31;20107;-76
2022/11/23 15:05:30;;;;;;;10.40;5.05;;;;;;;3.86;100.00;97328.13;4480792;32;19976;-75
2022/11/23 15:08:09;;;;;;;9.75;5.45;;;;;;;3.83;100.00;97327.53;4482647;32;20137;-75
2022/11/23 15:10:47;;;;;;;10.27;5.45;;;;;;;3.87;100.00;97334.09;4480273;31;20100;-75
2022/11/23 15:13:26;;;;;;;13.07;6.25;;;;;;;3.82;100.00;97337.09;4482822;32;20126;-75
2022/11/23 15:15:55;;;;;;;11.75;5.12;;;;;;;3.79;100.00;97339.94;4484953;31;20087;-75
2022/11/23 15:18:39;;;;;;;11.25;5.18;;;;;;;3.86;100.00;97348.00;4483018;31;20118;-75
2022/11/23 15:21:09;;;;;;;;;;;;;;;3.81;100.00;97343.19;4477358;32;20180;-74
2022/11/23 15:23:45;;;;;;;15.40;10.02;;;;;;;3.83;100.00;97353.44;4479891;31;21223;-74
2022/11/23 15:26:15;;;;;;;12.18;6.70;;;;;;;3.84;100.00;97352.50;4477898;32;20598;-75
2022/11/23 15:29:02;;;;;;;17.10;7.05;;;;;;;3.91;100.00;97353.63;4478165;32;20107;-75
2022/11/23 15:31:34;;;;;;;25.52;11.48;;;;;;;3.88;100.00;97353.88;4478523;32;20096;-76
2022/11/23 15:34:05;;;;;;;18.33;6.75;;;;;;;3.95;100.00;97359.34;4478318;31;20088;-74
2022/11/23 15:36:35;;;;;;;12.98;7.95;;;;;;;3.95;100.00;97364.53;4483172;32;20091;-74
2022/11/23 15:39:07;;;;;;;8.82;4.93;;;;;;;3.91;100.00;97362.22;4483525;32;20135;-74
2022/11/23 15:41:37;;;;;;;14.30;9.35;;;;;;;3.93;100.00;97363.84;4481840;31;20132;-74
2022/11/23 15:44:19;;;;;;;12.05;6.05;;;;;;;3.89;100.00;97368.47;4482464;32;20136;-74
2022/11/23 15:46:48;;;;;;;18.15;8.55;;;;;;;3.97;100.00;97373.84;4481646;32;20096;-74
2022/11/23 15:49:15;;;;;;;15.98;8.98;;;;;;;4.01;100.00;97370.03;4469186;31;20148;-74
2022/11/23 15:51:43;;;;;;;21.02;9.07;;;;;;;4.08;100.00;97372.91;4466132;32;20164;-74
2022/11/23 15:54:18;;;;;;;22.95;8.35;;;;;;;4.00;100.00;97373.56;4469631;32;20131;-74
2022/11/23 15:56:47;;;;;;;19.80;9.95;;;;;;;3.99;100.00;97371.91;4475390;32;20168;-75
2022/11/23 15:59:37;;;;;;;13.50;7.72;;;;;;;3.97;100.00;97381.59;4473771;32;20169;-74
2022/11/23 16:02:05;;;;;;;17.17;9.02;;;;;;;3.98;100.00;97385.84;4470023;32;20093;-74
2022/11/23 16:04:38;;;;;;;17.17;8.85;;;;;;;3.97;100.00;97384.19;4471851;32;20135;-74
2022/11/23 16:07:15;;;;;;;13.80;7.82;;;;;;;4.02;100.00;97384.59;4476525;32;20115;-73
2022/11/23 16:09:46;;;;;;;17.37;8.52;;;;;;;4.03;100.00;97391.44;4470767;32;20088;-73
2022/11/23 16:12:24;;;;;;;14.40;7.75;;;;;;;3.94;100.00;97402.59;4474068;32;20093;-73
2022/11/23 16:14:54;;;;;;;13.18;7.87;;;;;;;3.85;100.00;97401.59;4476790;31;20155;-75
2022/11/23 16:17:30;;;;;;;12.88;7.72;;;;;;;3.76;100.00;97397.19;4474082;32;20160;-74
2022/11/23 16:20:00;;;;;;;15.65;7.90;;;;;;;3.69;100.00;97404.66;4486692;31;20871;-74
2022/11/23 16:22:29;;;;;;;15.38;8.70;;;;;;;3.71;100.00;97407.91;4480772;32;20282;-75
2022/11/23 16:25:15;;;;;;;15.82;8.80;;;;;;;3.68;100.00;97409.94;4483004;32;20923;-74
2022/11/23 16:27:42;;;;;;;13.93;7.97;;;;;;;3.62;100.00;97406.09;4482769;31;20133;-74
2022/11/23 16:30:27;;;;;;;16.98;8.63;;;;;;;3.57;100.00;97410.81;4483542;31;20159;-74
2022/11/23 16:32:54;;;;;;;16.05;8.35;;;;;;;3.59;100.00;97408.94;4485114;31;20089;-74
2022/11/23 16:35:21;;;;;;;15.38;8.38;;;;;;;3.59;100.00;97403.75;4484767;31;20181;-74
2022/11/23 16:37:48;;;;;;;15.10;7.93;;;;;;;3.61;100.00;97411.41;4484789;31;20123;-74
2022/11/23 16:40:15;;;;;;;15.35;8.63;;;;;;;3.56;100.00;97406.62;4485694;31;20467;-74
2022/11/23 16:42:44;;;;;;;15.90;8.35;;;;;;;3.56;100.00;97404.03;4485823;31;20089;-74
2022/11/23 16:45:11;;;;;;;14.32;7.57;;;;;;;3.49;100.00;97401.09;4485849;31;20125;-74
2022/11/23 16:47:56;;;;;;;15.77;7.35;;;;;;;3.45;100.00;97406.66;4465337;31;20144;-74
2022/11/23 16:50:23;;;;;;;16.00;7.62;;;;;;;3.46;100.00;97403.13;4469050;32;20084;-74
2022/11/23 16:52:50;;;;;;;15.32;8.00;;;;;;;3.42;100.00;97406.91;4469661;32;20116;-75
2022/11/23 16:55:17;;;;;;;15.57;7.62;;;;;;;3.44;100.00;97405.84;4468673;32;20089;-74
2022/11/23 16:57:45;;;;;;;13.00;8.13;;;;;;;3.45;100.00;97406.66;4469934;32;20477;-74
2022/11/23 17:00:21;;;;;;;15.15;7.62;;;;;;;3.47;100.00;97407.38;4470155;32;20148;-74
2022/11/23 17:02:48;;;;;;;16.50;8.73;;;;;;;3.45;100.00;97404.06;4469490;32;20565;-74
2022/11/23 17:05:19;;;;;;;17.05;8.60;;;;;;;3.49;100.00;97405.47;4470519;32;20475;-75
2022/11/23 17:07:46;;;;;;;14.02;7.90;;;;;;;3.46;100.00;97410.91;4472231;32;20077;-74
2022/11/23 17:10:14;;;;;;;20.88;9.55;;;;;;;3.45;100.00;97412.69;4486040;31;20088;-75
2022/11/23 17:12:52;;;;;;;19.30;8.70;;;;;;;3.41;100.00;97415.59;4486029;31;20109;-74
2022/11/23 17:15:21;;;;;;;14.57;8.85;;;;;;;3.43;100.00;97411.16;4486193;31;20100;-75
2022/11/23 17:17:49;;;;;;;18.17;8.48;;;;;;;3.43;100.00;97413.75;4484661;32;20104;-74
2022/11/23 17:20:17;;;;;;;18.20;7.75;;;;;;;3.41;100.00;97410.44;4481389;31;20089;-74
2022/11/23 17:22:44;;;;;;;13.15;8.15;;;;;;;3.38;100.00;97403.75;4470306;32;20105;-75
2022/11/23 17:25:12;;;;;;;16.92;9.00;;;;;;;3.42;100.00;97414.69;4470280;32;20149;-74
2022/11/23 17:27:42;;;;;;;14.95;7.97;;;;;;;3.37;100.00;97409.87;4470651;32;20115;-74
2022/11/23 17:30:13;;;;;;;15.80;7.72;;;;;;;3.40;100.00;97414.00;4469032;32;20085;-75
2022/11/23 17:32:40;;;;;;;20.92;9.95;;;;;;;3.37;100.00;97413.28;4470211;32;20113;-75
2022/11/23 17:35:07;;;;;;;17.52;7.90;;;;;;;3.34;100.00;97421.28;4470160;32;20175;-75
2022/11/23 17:37:35;;;;;;;16.25;8.32;;;;;;;3.43;100.00;97416.31;4470287;32;20081;-75
2022/11/23 17:40:03;;;;;;;17.75;8.48;;;;;;;3.45;100.00;97414.41;4470020;32;20388;-75
2022/11/23 17:42:30;;;;;;;13.07;7.90;;;;;;;3.42;100.00;97417.25;4470178;32;20104;-75
2022/11/23 17:44:57;;;;;;;11.57;6.93;;;;;;;3.43;100.00;97408.56;4470299;32;20451;-75
2022/11/23 17:47:27;;;;;;;13.50;7.87;;;;;;;3.41;100.00;97410.44;4470187;32;20168;-75
2022/11/23 17:49:55;;;;;;;16.33;7.95;;;;;;;3.36;100.00;97416.84;4470189;32;20435;-75
2022/11/23 17:52:23;;;;;;;12.50;7.12;;;;;;;3.42;100.00;97415.47;4470107;32;20116;-75
2022/11/23 17:54:50;;;;;;;14.02;7.37;;;;;;;3.42;100.00;97417.25;4470053;32;20128;-75
2022/11/23 17:57:21;;;;;;;14.43;7.87;;;;;;;3.45;100.00;97415.25;4470030;32;20108;-75
2022/11/23 17:59:49;;;;;;;14.23;7.28;;;;;;;3.42;100.00;97420.66;4469865;32;20088;-75
2022/11/23 18:02:18;;;;;;;16.77;9.02;;;;;;;3.39;100.00;97415.75;4469966;32;20107;-75
2022/11/23 18:04:46;;;;;;;19.23;9.68;;;;;;;3.43;100.00;97424.09;4469910;32;20537;-75
2022/11/23 18:07:14;;;;;;;17.05;8.02;;;;;;;3.43;100.00;97418.91;4470099;32;20089;-75
2022/11/23 18:09:41;;;;;;;16.02;7.72;;;;;;;3.38;100.00;97420.09;4484253;32;20161;-75
2022/11/23 18:12:09;;;;;;;18.70;8.10;;;;;;;3.32;100.00;97418.00;4485920;31;20119;-75
2022/11/23 18:14:36;;;;;;;13.52;7.53;;;;;;;3.36;100.00;97421.16;4485645;31;20168;-75
2022/11/23 18:17:03;;;;;;;13.80;7.90;;;;;;;3.40;100.00;97419.16;4485611;31;20110;-75
2022/11/23 18:19:30;;;;;;;14.50;7.93;;;;;;;3.44;100.00;97425.75;4485417;31;20112;-75
2022/11/23 18:21:58;;;;;;;13.52;7.78;;;;;;;3.47;100.00;97422.91;4469793;31;20100;-75
2022/11/23 18:24:25;;;;;;;16.30;7.53;;;;;;;3.52;100.00;97429.31;4469661;32;20122;-75
2022/11/23 18:26:52;;;;;;;12.68;7.55;;;;;;;3.49;100.00;97413.22;4468969;32;20108;-75
2022/11/23 18:29:19;;;;;;;13.75;7.82;;;;;;;3.58;100.00;97422.84;4469789;32;20093;-75
2022/11/23 18:31:46;;;;;;;15.02;7.10;;;;;;;3.57;100.00;97422.97;4469918;32;20097;-75
2022/11/23 18:34:14;;;;;;;11.75;6.53;;;;;;;3.65;100.00;97425.72;4469924;32;20226;-75
2022/11/23 18:36:41;;;;;;;12.30;6.87;;;;;;;3.65;100.00;97434.34;4469934;32;20132;-75
2022/11/23 18:39:08;;;;;;;11.32;6.32;;;;;;;3.65;100.00;97434.34;4469636;32;20452;-75
2022/11/23 18:41:35;;;;;;;10.57;5.75;;;;;;;3.70;100.00;97431.38;4469687;32;20100;-75
2022/11/23 18:44:03;;;;;;;15.70;6.25;;;;;;;3.68;100.00;97425.47;4468794;32;20097;-75
2022/11/23 18:46:31;;;;;;;11.32;6.45;;;;;;;3.72;100.00;97435.47;4469801;32;20097;-75
2022/11/23 18:48:59;;;;;;;10.27;5.93;;;;;;;3.77;100.00;97434.25;4469611;32;20096;-75
2022/11/23 18:51:26;;;;;;;9.82;5.68;;;;;;;3.78;100.00;97441.09;4469664;32;20480;-75
2022/11/23 18:53:54;;;;;;;12.02;6.65;;;;;;;3.79;100.00;97434.97;4469595;32;20164;-75
2022/11/23 18:56:21;;;;;;;10.25;6.53;;;;;;;3.80;100.00;97442.59;4469496;32;20085;-75
2022/11/23 18:58:48;;;;;;;9.13;5.25;;;;;;;3.81;100.00;97441.63;4469438;32;20093;-75
2022/11/23 19:01:18;;;;;;;9.38;5.70;;;;;;;3.86;100.00;97446.44;4469483;32;20122;-75
2022/11/23 19:03:47;;;;;;;12.93;5.70;;;;;;;3.88;100.00;97447.16;4469929;32;20115;-75
2022/11/23 19:06:16;;;;;;;10.20;5.22;;;;;;;3.81;100.00;97443.41;4469526;32;20111;-75
2022/11/23 19:08:45;;;;;;;10.45;5.60;;;;;;;3.87;100.00;97442.91;4477648;32;20096;-75
2022/11/23 19:11:18;;;;;;;10.38;5.40;;;;;;;3.83;100.00;97444.94;4485230;31;20463;-75
2022/11/23 19:13:51;;;;;;;10.25;5.50;;;;;;;3.81;100.00;97443.41;4485148;31;20103;-75
2022/11/23 19:16:24;;;;;;;9.68;5.05;;;;;;;3.77;100.00;97447.19;4485107;31;20171;-75
2022/11/23 19:18:55;;;;;;;10.15;6.12;;;;;;;3.82;100.00;97445.06;4484956;31;20090;-75
2022/11/23 19:21:23;;;;;;;8.52;5.60;;;;;;;3.81;100.00;97453.78;4473243;31;20119;-75
2022/11/23 19:23:52;;;;;;;10.20;5.80;;;;;;;3.80;100.00;97446.94;4468319;32;20196;-75
2022/11/23 19:26:19;;;;;;;11.12;5.93;;;;;;;3.81;100.00;97453.78;4469173;32;20159;-75
2022/11/23 19:28:47;;;;;;;11.12;6.82;;;;;;;3.87;100.00;97456.66;4469374;32;20092;-75
2022/11/23 19:31:17;;;;;;;13.07;6.90;;;;;;;3.85;100.00;97455.19;4469360;32;20568;-75
2022/11/23 19:33:46;;;;;;;12.02;6.37;;;;;;;3.87;100.00;97459.25;4469504;32;20105;-75
2022/11/23 19:36:16;;;;;;;13.77;5.90;;;;;;;3.83;100.00;97459.66;4469158;32;20092;-75
2022/11/23 19:38:44;;;;;;;11.43;6.05;;;;;;;3.83;100.00;97470.00;4469356;32;20096;-75
2022/11/23 19:41:11;;;;;;;11.98;5.93;;;;;;;3.85;100.00;97465.53;4469171;32;20548;-75
2022/11/23 19:43:38;;;;;;;12.65;6.18;;;;;;;3.83;100.00;97464.81;4469277;32;20557;-75
2022/11/23 19:46:06;;;;;;;9.95;5.62;;;;;;;3.84;100.00;97466.47;4469059;32;20514;-75
2022/11/23 19:48:33;;;;;;;12.70;6.60;;;;;;;3.84;100.00;97461.28;4469187;32;20123;-75
2022/11/23 19:51:06;;;;;;;12.52;6.68;;;;;;;3.91;100.00;97475.38;4469076;32;20116;-75
2022/11/23 19:53:35;;;;;;;9.93;5.55;;;;;;;3.89;100.00;97466.91;4469348;32;20602;-75
2022/11/23 19:56:04;;;;;;;10.20;5.95;;;;;;;3.85;100.00;97473.31;4469231;32;20080;-75
2022/11/23 19:58:32;;;;;;;10.48;5.78;;;;;;;3.89;100.00;97472.09;4468946;32;20123;-75
2022/11/23 20:01:01;;;;;;;15.02;7.32;;;;;;;3.88;100.00;97475.66;4468788;32;20089;-75